sensor_id;sensor_type;location;lat;lon;timestamp;P1;durP1;ratioP1;P2;durP2;ratioP2
15342;SDS011;7771;48.478;8.936;2023-06-22T00:00:01;8.27;;;7.47;;
15342;SDS011;7771;48.478;8.936;2023-06-22T00:02:27;9.23;;;7.75;;
15342;SDS011;7771;48.478;8.936;2023-06-22T00:04:55;9.60;;;7.43;;
15342;SDS011;7771;48.478;8.936;2023-06-22T00:07:21;10.20;;;7.70;;
15342;SDS011;7771;48.478;8.936;2023-06-22T00:09:49;9.30;;;7.43;;
15342;SDS011;7771;48.478;8.936;2023-06-22T00:12:16;11.10;;;7.57;;
15342;SDS011;7771;48.478;8.936;2023-06-22T00:14:44;10.85;;;7.60;;
15342;SDS011;7771;48.478;8.936;2023-06-22T00:17:10;9.77;;;7.60;;
15342;SDS011;7771;48.478;8.936;2023-06-22T00:19:37;9.75;;;7.30;;
15342;SDS011;7771;48.478;8.936;2023-06-22T00:22:04;9.80;;;7.78;;
15342;SDS011;7771;48.478;8.936;2023-06-22T00:24:32;8.02;;;7.22;;
15342;SDS011;7771;48.478;8.936;2023-06-22T00:26:58;9.77;;;7.32;;
15342;SDS011;7771;48.478;8.936;2023-06-22T00:29:27;9.68;;;7.47;;
15342;SDS011;7771;48.478;8.936;2023-06-22T00:31:54;13.57;;;7.43;;
15342;SDS011;7771;48.478;8.936;2023-06-22T00:34:22;13.02;;;7.68;;
15342;SDS011;7771;48.478;8.936;2023-06-22T00:36:49;14.00;;;7.07;;
15342;SDS011;7771;48.478;8.936;2023-06-22T00:39:16;10.95;;;7.07;;
15342;SDS011;7771;48.478;8.936;2023-06-22T00:41:43;9.35;;;7.05;;
15342;SDS011;7771;48.478;8.936;2023-06-22T00:44:10;11.65;;;7.32;;
15342;SDS011;7771;48.478;8.936;2023-06-22T00:46:37;10.35;;;7.37;;
15342;SDS011;7771;48.478;8.936;2023-06-22T00:49:04;9.90;;;7.20;;
15342;SDS011;7771;48.478;8.936;2023-06-22T00:51:31;10.05;;;7.35;;
15342;SDS011;7771;48.478;8.936;2023-06-22T00:53:59;14.15;;;8.23;;
15342;SDS011;7771;48.478;8.936;2023-06-22T00:56:25;8.73;;;7.43;;
15342;SDS011;7771;48.478;8.936;2023-06-22T00:58:52;13.18;;;7.30;;
15342;SDS011;7771;48.478;8.936;2023-06-22T01:01:19;10.77;;;7.90;;
15342;SDS011;7771;48.478;8.936;2023-06-22T01:03:45;9.10;;;7.90;;
15342;SDS011;7771;48.478;8.936;2023-06-22T01:06:14;9.65;;;7.78;;
15342;SDS011;7771;48.478;8.936;2023-06-22T01:08:42;9.75;;;7.78;;
15342;SDS011;7771;48.478;8.936;2023-06-22T01:11:17;12.55;;;7.57;;
15342;SDS011;7771;48.478;8.936;2023-06-22T01:14:22;12.20;;;7.72;;
15342;SDS011;7771;48.478;8.936;2023-06-22T01:16:34;10.73;;;8.20;;
15342;SDS011;7771;48.478;8.936;2023-06-22T01:19:01;10.68;;;7.80;;
15342;SDS011;7771;48.478;8.936;2023-06-22T01:21:28;15.85;;;7.57;;
15342;SDS011;7771;48.478;8.936;2023-06-22T01:24:00;13.13;;;7.78;;
15342;SDS011;7771;48.478;8.936;2023-06-22T01:29:15;12.60;;;7.78;;
15342;SDS011;7771;48.478;8.936;2023-06-22T01:31:42;16.37;;;9.20;;
15342;SDS011;7771;48.478;8.936;2023-06-22T01:34:08;10.05;;;8.05;;
15342;SDS011;7771;48.478;8.936;2023-06-22T01:36:36;12.55;;;7.75;;
15342;SDS011;7771;48.478;8.936;2023-06-22T01:39:03;12.37;;;8.73;;
15342;SDS011;7771;48.478;8.936;2023-06-22T01:41:30;11.65;;;7.90;;
15342;SDS011;7771;48.478;8.936;2023-06-22T01:43:57;11.05;;;8.55;;
15342;SDS011;7771;48.478;8.936;2023-06-22T01:46:23;8.63;;;7.70;;
15342;SDS011;7771;48.478;8.936;2023-06-22T01:48:51;11.35;;;8.55;;
15342;SDS011;7771;48.478;8.936;2023-06-22T01:51:19;11.38;;;8.48;;
15342;SDS011;7771;48.478;8.936;2023-06-22T01:53:45;15.05;;;8.18;;
15342;SDS011;7771;48.478;8.936;2023-06-22T01:56:15;10.70;;;7.68;;
15342;SDS011;7771;48.478;8.936;2023-06-22T01:58:43;13.25;;;8.38;;
15342;SDS011;7771;48.478;8.936;2023-06-22T02:01:10;12.27;;;7.95;;
15342;SDS011;7771;48.478;8.936;2023-06-22T02:03:37;12.23;;;8.50;;
15342;SDS011;7771;48.478;8.936;2023-06-22T02:06:05;11.32;;;8.90;;
15342;SDS011;7771;48.478;8.936;2023-06-22T02:08:31;14.18;;;9.77;;
15342;SDS011;7771;48.478;8.936;2023-06-22T02:10:57;15.85;;;9.73;;
15342;SDS011;7771;48.478;8.936;2023-06-22T02:13:26;11.27;;;8.73;;
15342;SDS011;7771;48.478;8.936;2023-06-22T02:15:52;15.68;;;9.27;;
15342;SDS011;7771;48.478;8.936;2023-06-22T02:18:20;17.83;;;9.57;;
15342;SDS011;7771;48.478;8.936;2023-06-22T02:20:47;16.62;;;9.98;;
15342;SDS011;7771;48.478;8.936;2023-06-22T02:23:14;13.13;;;8.77;;
15342;SDS011;7771;48.478;8.936;2023-06-22T02:25:41;15.35;;;9.55;;
15342;SDS011;7771;48.478;8.936;2023-06-22T02:28:07;12.60;;;9.45;;
15342;SDS011;7771;48.478;8.936;2023-06-22T02:30:34;14.70;;;9.15;;
15342;SDS011;7771;48.478;8.936;2023-06-22T02:33:01;12.77;;;9.13;;
15342;SDS011;7771;48.478;8.936;2023-06-22T02:35:28;13.52;;;9.73;;
15342;SDS011;7771;48.478;8.936;2023-06-22T02:37:59;11.30;;;9.27;;
15342;SDS011;7771;48.478;8.936;2023-06-22T02:40:25;19.27;;;9.32;;
15342;SDS011;7771;48.478;8.936;2023-06-22T02:42:53;17.17;;;9.27;;
15342;SDS011;7771;48.478;8.936;2023-06-22T02:45:19;17.98;;;10.00;;
15342;SDS011;7771;48.478;8.936;2023-06-22T02:47:47;14.07;;;9.13;;
15342;SDS011;7771;48.478;8.936;2023-06-22T02:50:14;14.05;;;9.48;;
15342;SDS011;7771;48.478;8.936;2023-06-22T02:52:41;14.75;;;9.45;;
15342;SDS011;7771;48.478;8.936;2023-06-22T02:55:08;13.05;;;8.65;;
15342;SDS011;7771;48.478;8.936;2023-06-22T02:57:35;18.65;;;10.48;;
15342;SDS011;7771;48.478;8.936;2023-06-22T03:00:05;16.25;;;10.48;;
15342;SDS011;7771;48.478;8.936;2023-06-22T03:02:31;18.90;;;9.93;;
15342;SDS011;7771;48.478;8.936;2023-06-22T03:04:58;19.77;;;9.82;;
15342;SDS011;7771;48.478;8.936;2023-06-22T03:07:25;24.10;;;11.23;;
15342;SDS011;7771;48.478;8.936;2023-06-22T03:09:54;19.10;;;10.98;;
15342;SDS011;7771;48.478;8.936;2023-06-22T03:12:20;15.10;;;10.68;;
15342;SDS011;7771;48.478;8.936;2023-06-22T03:14:47;18.65;;;10.48;;
15342;SDS011;7771;48.478;8.936;2023-06-22T03:17:14;14.05;;;10.70;;
15342;SDS011;7771;48.478;8.936;2023-06-22T03:19:42;17.77;;;10.35;;
15342;SDS011;7771;48.478;8.936;2023-06-22T03:22:09;17.58;;;11.10;;
15342;SDS011;7771;48.478;8.936;2023-06-22T03:24:35;15.98;;;11.05;;
15342;SDS011;7771;48.478;8.936;2023-06-22T03:27:03;17.15;;;10.32;;
15342;SDS011;7771;48.478;8.936;2023-06-22T03:29:31;20.80;;;10.93;;
15342;SDS011;7771;48.478;8.936;2023-06-22T03:31:57;15.90;;;11.18;;
15342;SDS011;7771;48.478;8.936;2023-06-22T03:34:25;19.05;;;10.68;;
15342;SDS011;7771;48.478;8.936;2023-06-22T03:36:52;21.35;;;10.00;;
15342;SDS011;7771;48.478;8.936;2023-06-22T03:39:19;14.25;;;9.52;;
15342;SDS011;7771;48.478;8.936;2023-06-22T03:41:47;17.35;;;10.73;;
15342;SDS011;7771;48.478;8.936;2023-06-22T03:44:13;15.10;;;10.68;;
15342;SDS011;7771;48.478;8.936;2023-06-22T03:46:40;18.55;;;10.05;;
15342;SDS011;7771;48.478;8.936;2023-06-22T03:49:07;17.37;;;10.32;;
15342;SDS011;7771;48.478;8.936;2023-06-22T03:51:34;20.52;;;11.48;;
15342;SDS011;7771;48.478;8.936;2023-06-22T03:54:01;18.70;;;10.98;;
15342;SDS011;7771;48.478;8.936;2023-06-22T03:56:30;14.75;;;9.70;;
15342;SDS011;7771;48.478;8.936;2023-06-22T03:58:56;17.37;;;10.05;;
15342;SDS011;7771;48.478;8.936;2023-06-22T04:01:23;15.40;;;10.25;;
15342;SDS011;7771;48.478;8.936;2023-06-22T04:03:49;15.40;;;10.32;;
15342;SDS011;7771;48.478;8.936;2023-06-22T04:06:16;21.17;;;10.45;;
15342;SDS011;7771;48.478;8.936;2023-06-22T04:08:45;15.90;;;10.32;;
15342;SDS011;7771;48.478;8.936;2023-06-22T04:11:12;16.05;;;11.10;;
15342;SDS011;7771;48.478;8.936;2023-06-22T04:13:40;17.02;;;10.02;;
15342;SDS011;7771;48.478;8.936;2023-06-22T04:16:07;14.82;;;11.43;;
15342;SDS011;7771;48.478;8.936;2023-06-22T04:18:34;14.52;;;10.75;;
15342;SDS011;7771;48.478;8.936;2023-06-22T04:21:01;15.95;;;10.13;;
15342;SDS011;7771;48.478;8.936;2023-06-22T04:23:28;15.50;;;9.05;;
15342;SDS011;7771;48.478;8.936;2023-06-22T04:25:55;18.77;;;10.20;;
15342;SDS011;7771;48.478;8.936;2023-06-22T04:28:22;14.25;;;10.40;;
15342;SDS011;7771;48.478;8.936;2023-06-22T04:30:49;15.98;;;10.20;;
15342;SDS011;7771;48.478;8.936;2023-06-22T04:33:17;18.23;;;10.48;;
15342;SDS011;7771;48.478;8.936;2023-06-22T04:35:45;19.90;;;10.65;;
15342;SDS011;7771;48.478;8.936;2023-06-22T04:38:12;18.37;;;10.18;;
15342;SDS011;7771;48.478;8.936;2023-06-22T04:40:39;16.67;;;10.50;;
15342;SDS011;7771;48.478;8.936;2023-06-22T04:43:06;17.73;;;10.35;;
15342;SDS011;7771;48.478;8.936;2023-06-22T04:45:32;14.27;;;9.88;;
15342;SDS011;7771;48.478;8.936;2023-06-22T04:48:00;15.90;;;9.38;;
15342;SDS011;7771;48.478;8.936;2023-06-22T04:50:27;14.65;;;10.85;;
15342;SDS011;7771;48.478;8.936;2023-06-22T04:52:55;15.68;;;10.57;;
15342;SDS011;7771;48.478;8.936;2023-06-22T04:55:24;20.77;;;11.00;;
15342;SDS011;7771;48.478;8.936;2023-06-22T04:57:51;18.02;;;10.20;;
15342;SDS011;7771;48.478;8.936;2023-06-22T05:00:18;16.35;;;10.10;;
15342;SDS011;7771;48.478;8.936;2023-06-22T05:02:45;14.02;;;10.30;;
15342;SDS011;7771;48.478;8.936;2023-06-22T05:05:13;18.25;;;11.18;;
15342;SDS011;7771;48.478;8.936;2023-06-22T05:07:41;18.42;;;11.00;;
15342;SDS011;7771;48.478;8.936;2023-06-22T05:10:10;13.48;;;11.45;;
15342;SDS011;7771;48.478;8.936;2023-06-22T05:12:38;16.75;;;10.25;;
15342;SDS011;7771;48.478;8.936;2023-06-22T05:15:06;16.12;;;10.45;;
15342;SDS011;7771;48.478;8.936;2023-06-22T05:17:33;15.25;;;11.32;;
15342;SDS011;7771;48.478;8.936;2023-06-22T05:19:59;14.60;;;9.77;;
15342;SDS011;7771;48.478;8.936;2023-06-22T05:22:27;14.48;;;11.25;;
15342;SDS011;7771;48.478;8.936;2023-06-22T05:24:54;14.18;;;10.40;;
15342;SDS011;7771;48.478;8.936;2023-06-22T05:27:23;16.52;;;10.57;;
15342;SDS011;7771;48.478;8.936;2023-06-22T05:29:49;14.73;;;10.55;;
15342;SDS011;7771;48.478;8.936;2023-06-22T05:32:16;12.88;;;10.15;;
15342;SDS011;7771;48.478;8.936;2023-06-22T05:34:43;15.02;;;10.10;;
15342;SDS011;7771;48.478;8.936;2023-06-22T05:37:10;11.38;;;9.63;;
15342;SDS011;7771;48.478;8.936;2023-06-22T05:39:38;12.98;;;10.07;;
15342;SDS011;7771;48.478;8.936;2023-06-22T05:42:05;15.25;;;10.23;;
15342;SDS011;7771;48.478;8.936;2023-06-22T05:44:32;12.23;;;9.77;;
15342;SDS011;7771;48.478;8.936;2023-06-22T05:47:00;17.55;;;10.18;;
15342;SDS011;7771;48.478;8.936;2023-06-22T05:49:26;14.50;;;9.95;;
15342;SDS011;7771;48.478;8.936;2023-06-22T05:51:54;13.52;;;9.65;;
15342;SDS011;7771;48.478;8.936;2023-06-22T05:54:20;12.25;;;9.93;;
15342;SDS011;7771;48.478;8.936;2023-06-22T05:56:47;17.52;;;9.73;;
15342;SDS011;7771;48.478;8.936;2023-06-22T05:59:14;13.38;;;9.00;;
15342;SDS011;7771;48.478;8.936;2023-06-22T06:01:40;12.55;;;8.98;;
15342;SDS011;7771;48.478;8.936;2023-06-22T06:04:08;9.90;;;8.30;;
15342;SDS011;7771;48.478;8.936;2023-06-22T06:06:35;12.85;;;9.85;;
15342;SDS011;7771;48.478;8.936;2023-06-22T06:09:02;12.90;;;9.30;;
15342;SDS011;7771;48.478;8.936;2023-06-22T06:11:28;11.02;;;9.00;;
15342;SDS011;7771;48.478;8.936;2023-06-22T06:13:55;13.70;;;9.32;;
15342;SDS011;7771;48.478;8.936;2023-06-22T06:16:22;14.13;;;9.45;;
15342;SDS011;7771;48.478;8.936;2023-06-22T06:18:49;12.23;;;8.60;;
15342;SDS011;7771;48.478;8.936;2023-06-22T06:21:16;11.48;;;8.60;;
15342;SDS011;7771;48.478;8.936;2023-06-22T06:23:43;12.02;;;8.98;;
15342;SDS011;7771;48.478;8.936;2023-06-22T06:26:11;9.70;;;7.28;;
15342;SDS011;7771;48.478;8.936;2023-06-22T06:28:38;11.07;;;8.52;;
15342;SDS011;7771;48.478;8.936;2023-06-22T06:31:05;9.60;;;8.18;;
15342;SDS011;7771;48.478;8.936;2023-06-22T06:33:32;12.37;;;8.70;;
15342;SDS011;7771;48.478;8.936;2023-06-22T06:36:00;12.00;;;8.57;;
15342;SDS011;7771;48.478;8.936;2023-06-22T06:38:29;8.52;;;7.68;;
15342;SDS011;7771;48.478;8.936;2023-06-22T06:40:56;11.85;;;7.50;;
15342;SDS011;7771;48.478;8.936;2023-06-22T06:43:22;10.02;;;6.78;;
15342;SDS011;7771;48.478;8.936;2023-06-22T06:45:50;7.87;;;6.75;;
15342;SDS011;7771;48.478;8.936;2023-06-22T06:48:17;8.80;;;6.22;;
15342;SDS011;7771;48.478;8.936;2023-06-22T06:50:45;8.23;;;6.62;;
15342;SDS011;7771;48.478;8.936;2023-06-22T06:53:12;8.77;;;6.10;;
15342;SDS011;7771;48.478;8.936;2023-06-22T06:55:40;6.37;;;5.45;;
15342;SDS011;7771;48.478;8.936;2023-06-22T06:58:08;8.50;;;6.30;;
15342;SDS011;7771;48.478;8.936;2023-06-22T07:00:35;7.57;;;5.43;;
15342;SDS011;7771;48.478;8.936;2023-06-22T07:03:02;9.55;;;5.20;;
15342;SDS011;7771;48.478;8.936;2023-06-22T07:05:30;10.35;;;7.10;;
15342;SDS011;7771;48.478;8.936;2023-06-22T07:07:57;7.40;;;5.28;;
15342;SDS011;7771;48.478;8.936;2023-06-22T07:10:23;7.70;;;5.57;;
15342;SDS011;7771;48.478;8.936;2023-06-22T07:12:50;8.07;;;4.80;;
15342;SDS011;7771;48.478;8.936;2023-06-22T07:15:17;5.95;;;5.35;;
15342;SDS011;7771;48.478;8.936;2023-06-22T07:17:45;8.80;;;5.05;;
15342;SDS011;7771;48.478;8.936;2023-06-22T07:20:12;8.70;;;5.57;;
15342;SDS011;7771;48.478;8.936;2023-06-22T07:22:42;11.73;;;7.80;;
15342;SDS011;7771;48.478;8.936;2023-06-22T07:25:08;9.55;;;5.50;;
15342;SDS011;7771;48.478;8.936;2023-06-22T07:27:36;7.10;;;4.82;;
15342;SDS011;7771;48.478;8.936;2023-06-22T07:30:03;7.55;;;5.32;;
15342;SDS011;7771;48.478;8.936;2023-06-22T07:32:30;11.12;;;6.05;;
15342;SDS011;7771;48.478;8.936;2023-06-22T07:34:57;8.60;;;5.72;;
15342;SDS011;7771;48.478;8.936;2023-06-22T07:37:24;6.12;;;5.07;;
15342;SDS011;7771;48.478;8.936;2023-06-22T07:39:50;7.93;;;4.87;;
15342;SDS011;7771;48.478;8.936;2023-06-22T07:42:18;8.65;;;5.60;;
15342;SDS011;7771;48.478;8.936;2023-06-22T07:44:45;7.97;;;5.62;;
15342;SDS011;7771;48.478;8.936;2023-06-22T07:47:12;6.75;;;4.78;;
15342;SDS011;7771;48.478;8.936;2023-06-22T07:49:39;8.15;;;5.30;;
15342;SDS011;7771;48.478;8.936;2023-06-22T07:52:06;8.70;;;5.70;;
15342;SDS011;7771;48.478;8.936;2023-06-22T07:54:33;10.55;;;6.03;;
15342;SDS011;7771;48.478;8.936;2023-06-22T07:57:01;6.68;;;5.57;;
15342;SDS011;7771;48.478;8.936;2023-06-22T07:59:28;10.43;;;5.82;;
15342;SDS011;7771;48.478;8.936;2023-06-22T08:01:55;9.80;;;5.60;;
15342;SDS011;7771;48.478;8.936;2023-06-22T08:04:21;7.78;;;4.93;;
15342;SDS011;7771;48.478;8.936;2023-06-22T08:06:48;9.05;;;5.53;;
15342;SDS011;7771;48.478;8.936;2023-06-22T08:09:15;11.63;;;4.97;;
15342;SDS011;7771;48.478;8.936;2023-06-22T08:11:42;7.53;;;5.12;;
15342;SDS011;7771;48.478;8.936;2023-06-22T08:14:10;9.57;;;5.22;;
15342;SDS011;7771;48.478;8.936;2023-06-22T08:16:37;8.18;;;5.53;;
15342;SDS011;7771;48.478;8.936;2023-06-22T08:19:03;8.82;;;5.32;;
15342;SDS011;7771;48.478;8.936;2023-06-22T08:21:31;9.57;;;5.45;;
15342;SDS011;7771;48.478;8.936;2023-06-22T08:23:58;9.93;;;5.45;;
15342;SDS011;7771;48.478;8.936;2023-06-22T08:26:26;9.32;;;6.00;;
15342;SDS011;7771;48.478;8.936;2023-06-22T08:28:53;13.40;;;7.75;;
15342;SDS011;7771;48.478;8.936;2023-06-22T08:31:20;10.23;;;5.65;;
15342;SDS011;7771;48.478;8.936;2023-06-22T08:33:46;6.97;;;5.35;;
15342;SDS011;7771;48.478;8.936;2023-06-22T08:36:14;10.15;;;5.90;;
15342;SDS011;7771;48.478;8.936;2023-06-22T08:38:41;10.63;;;5.35;;
15342;SDS011;7771;48.478;8.936;2023-06-22T08:41:08;13.07;;;6.37;;
15342;SDS011;7771;48.478;8.936;2023-06-22T08:43:35;8.18;;;6.43;;
15342;SDS011;7771;48.478;8.936;2023-06-22T08:46:03;7.22;;;5.35;;
15342;SDS011;7771;48.478;8.936;2023-06-22T08:48:29;8.68;;;6.05;;
15342;SDS011;7771;48.478;8.936;2023-06-22T08:50:56;8.65;;;5.60;;
15342;SDS011;7771;48.478;8.936;2023-06-22T08:53:23;11.18;;;6.30;;
15342;SDS011;7771;48.478;8.936;2023-06-22T08:55:51;8.75;;;6.22;;
15342;SDS011;7771;48.478;8.936;2023-06-22T08:58:17;10.20;;;5.85;;
15342;SDS011;7771;48.478;8.936;2023-06-22T09:00:44;8.52;;;6.07;;
15342;SDS011;7771;48.478;8.936;2023-06-22T09:03:11;11.07;;;5.65;;
15342;SDS011;7771;48.478;8.936;2023-06-22T09:05:38;14.23;;;5.72;;
15342;SDS011;7771;48.478;8.936;2023-06-22T09:08:04;11.60;;;5.95;;
15342;SDS011;7771;48.478;8.936;2023-06-22T09:10:31;7.15;;;5.53;;
15342;SDS011;7771;48.478;8.936;2023-06-22T09:12:57;7.40;;;5.37;;
15342;SDS011;7771;48.478;8.936;2023-06-22T09:15:24;10.70;;;5.00;;
15342;SDS011;7771;48.478;8.936;2023-06-22T09:17:50;20.75;;;11.38;;
15342;SDS011;7771;48.478;8.936;2023-06-22T09:20:19;9.70;;;6.07;;
15342;SDS011;7771;48.478;8.936;2023-06-22T09:22:45;23.42;;;7.12;;
15342;SDS011;7771;48.478;8.936;2023-06-22T09:25:12;14.20;;;6.45;;
15342;SDS011;7771;48.478;8.936;2023-06-22T09:27:38;6.78;;;5.72;;
15342;SDS011;7771;48.478;8.936;2023-06-22T09:30:06;8.13;;;5.20;;
15342;SDS011;7771;48.478;8.936;2023-06-22T09:32:33;10.25;;;6.07;;
15342;SDS011;7771;48.478;8.936;2023-06-22T09:35:05;18.83;;;6.10;;
15342;SDS011;7771;48.478;8.936;2023-06-22T09:37:28;9.23;;;5.78;;
15342;SDS011;7771;48.478;8.936;2023-06-22T09:39:55;11.45;;;5.95;;
15342;SDS011;7771;48.478;8.936;2023-06-22T09:42:23;10.73;;;5.70;;
15342;SDS011;7771;48.478;8.936;2023-06-22T09:47:22;10.10;;;5.60;;
15342;SDS011;7771;48.478;8.936;2023-06-22T09:49:49;10.07;;;6.30;;
15342;SDS011;7771;48.478;8.936;2023-06-22T09:52:17;8.13;;;5.35;;
15342;SDS011;7771;48.478;8.936;2023-06-22T09:54:45;8.50;;;5.57;;
15342;SDS011;7771;48.478;8.936;2023-06-22T09:57:12;7.37;;;5.78;;
15342;SDS011;7771;48.478;8.936;2023-06-22T09:59:38;8.95;;;5.35;;
15342;SDS011;7771;48.478;8.936;2023-06-22T10:02:06;8.43;;;5.45;;
15342;SDS011;7771;48.478;8.936;2023-06-22T10:04:34;12.37;;;5.05;;
15342;SDS011;7771;48.478;8.936;2023-06-22T10:07:01;12.55;;;5.40;;
15342;SDS011;7771;48.478;8.936;2023-06-22T10:09:28;7.87;;;5.40;;
15342;SDS011;7771;48.478;8.936;2023-06-22T10:11:56;9.27;;;4.93;;
15342;SDS011;7771;48.478;8.936;2023-06-22T10:14:23;9.52;;;5.22;;
15342;SDS011;7771;48.478;8.936;2023-06-22T10:16:52;10.65;;;5.35;;
15342;SDS011;7771;48.478;8.936;2023-06-22T10:19:18;14.60;;;7.03;;
15342;SDS011;7771;48.478;8.936;2023-06-22T10:21:46;10.07;;;5.90;;
15342;SDS011;7771;48.478;8.936;2023-06-22T10:24:12;8.57;;;5.75;;
15342;SDS011;7771;48.478;8.936;2023-06-22T10:26:40;9.77;;;5.45;;
15342;SDS011;7771;48.478;8.936;2023-06-22T10:29:07;10.02;;;5.55;;
15342;SDS011;7771;48.478;8.936;2023-06-22T10:31:35;9.50;;;5.60;;
15342;SDS011;7771;48.478;8.936;2023-06-22T10:34:02;12.20;;;6.00;;
15342;SDS011;7771;48.478;8.936;2023-06-22T10:36:29;8.65;;;5.82;;
15342;SDS011;7771;48.478;8.936;2023-06-22T10:38:58;9.15;;;5.12;;
15342;SDS011;7771;48.478;8.936;2023-06-22T10:41:24;9.82;;;5.40;;
15342;SDS011;7771;48.478;8.936;2023-06-22T10:43:51;7.62;;;5.22;;
15342;SDS011;7771;48.478;8.936;2023-06-22T10:46:17;8.27;;;5.37;;
15342;SDS011;7771;48.478;8.936;2023-06-22T10:48:44;9.90;;;5.62;;
15342;SDS011;7771;48.478;8.936;2023-06-22T10:51:11;8.23;;;5.32;;
15342;SDS011;7771;48.478;8.936;2023-06-22T10:53:38;14.60;;;5.55;;
15342;SDS011;7771;48.478;8.936;2023-06-22T10:56:04;7.30;;;5.80;;
15342;SDS011;7771;48.478;8.936;2023-06-22T10:58:32;10.13;;;5.45;;
15342;SDS011;7771;48.478;8.936;2023-06-22T11:00:58;9.82;;;5.68;;
15342;SDS011;7771;48.478;8.936;2023-06-22T11:03:26;9.85;;;5.70;;
15342;SDS011;7771;48.478;8.936;2023-06-22T11:05:54;10.90;;;5.07;;
15342;SDS011;7771;48.478;8.936;2023-06-22T11:08:21;10.88;;;5.93;;
15342;SDS011;7771;48.478;8.936;2023-06-22T11:10:50;9.70;;;5.78;;
15342;SDS011;7771;48.478;8.936;2023-06-22T11:13:17;14.63;;;7.00;;
15342;SDS011;7771;48.478;8.936;2023-06-22T11:15:43;8.68;;;6.60;;
15342;SDS011;7771;48.478;8.936;2023-06-22T11:18:11;9.90;;;5.22;;
15342;SDS011;7771;48.478;8.936;2023-06-22T11:20:37;10.20;;;5.55;;
15342;SDS011;7771;48.478;8.936;2023-06-22T11:23:05;9.35;;;5.82;;
15342;SDS011;7771;48.478;8.936;2023-06-22T11:25:33;9.90;;;5.57;;
15342;SDS011;7771;48.478;8.936;2023-06-22T11:28:02;6.95;;;5.37;;
15342;SDS011;7771;48.478;8.936;2023-06-22T11:30:27;9.15;;;5.97;;
15342;SDS011;7771;48.478;8.936;2023-06-22T11:32:56;7.60;;;5.45;;
15342;SDS011;7771;48.478;8.936;2023-06-22T11:35:24;14.45;;;7.30;;
15342;SDS011;7771;48.478;8.936;2023-06-22T11:37:51;10.95;;;5.68;;
15342;SDS011;7771;48.478;8.936;2023-06-22T11:40:18;13.27;;;5.93;;
15342;SDS011;7771;48.478;8.936;2023-06-22T11:42:44;12.57;;;5.93;;
15342;SDS011;7771;48.478;8.936;2023-06-22T11:45:11;9.10;;;5.53;;
15342;SDS011;7771;48.478;8.936;2023-06-22T11:47:38;10.45;;;5.60;;
15342;SDS011;7771;48.478;8.936;2023-06-22T11:50:06;8.80;;;5.78;;
15342;SDS011;7771;48.478;8.936;2023-06-22T11:52:34;10.23;;;6.37;;
15342;SDS011;7771;48.478;8.936;2023-06-22T11:55:01;12.10;;;6.55;;
15342;SDS011;7771;48.478;8.936;2023-06-22T11:57:29;11.57;;;5.62;;
15342;SDS011;7771;48.478;8.936;2023-06-22T11:59:57;7.65;;;5.75;;
15342;SDS011;7771;48.478;8.936;2023-06-22T12:02:23;7.45;;;5.87;;
15342;SDS011;7771;48.478;8.936;2023-06-22T12:04:50;9.73;;;5.50;;
15342;SDS011;7771;48.478;8.936;2023-06-22T12:07:18;9.05;;;6.37;;
15342;SDS011;7771;48.478;8.936;2023-06-22T12:09:45;9.05;;;5.72;;
15342;SDS011;7771;48.478;8.936;2023-06-22T12:12:12;9.95;;;5.57;;
15342;SDS011;7771;48.478;8.936;2023-06-22T12:14:41;12.60;;;5.90;;
15342;SDS011;7771;48.478;8.936;2023-06-22T12:17:08;13.15;;;5.68;;
15342;SDS011;7771;48.478;8.936;2023-06-22T12:19:34;10.82;;;6.03;;
15342;SDS011;7771;48.478;8.936;2023-06-22T12:22:02;9.43;;;5.30;;
15342;SDS011;7771;48.478;8.936;2023-06-22T12:24:31;8.15;;;5.68;;
15342;SDS011;7771;48.478;8.936;2023-06-22T12:26:59;9.88;;;6.12;;
15342;SDS011;7771;48.478;8.936;2023-06-22T12:29:26;12.73;;;5.90;;
15342;SDS011;7771;48.478;8.936;2023-06-22T12:31:53;9.38;;;6.00;;
15342;SDS011;7771;48.478;8.936;2023-06-22T12:34:19;10.38;;;5.93;;
15342;SDS011;7771;48.478;8.936;2023-06-22T12:36:46;10.18;;;5.60;;
15342;SDS011;7771;48.478;8.936;2023-06-22T12:39:14;10.35;;;5.70;;
15342;SDS011;7771;48.478;8.936;2023-06-22T12:41:40;10.70;;;5.32;;
15342;SDS011;7771;48.478;8.936;2023-06-22T12:44:08;8.75;;;5.90;;
15342;SDS011;7771;48.478;8.936;2023-06-22T12:46:34;8.48;;;5.82;;
15342;SDS011;7771;48.478;8.936;2023-06-22T12:49:01;10.38;;;5.87;;
15342;SDS011;7771;48.478;8.936;2023-06-22T12:51:28;10.57;;;6.30;;
15342;SDS011;7771;48.478;8.936;2023-06-22T12:53:55;11.55;;;5.40;;
15342;SDS011;7771;48.478;8.936;2023-06-22T12:56:23;10.30;;;5.95;;
15342;SDS011;7771;48.478;8.936;2023-06-22T12:58:50;10.18;;;5.62;;
15342;SDS011;7771;48.478;8.936;2023-06-22T13:01:19;12.77;;;6.03;;
15342;SDS011;7771;48.478;8.936;2023-06-22T13:03:45;15.25;;;6.15;;
15342;SDS011;7771;48.478;8.936;2023-06-22T13:06:11;13.02;;;5.37;;
15342;SDS011;7771;48.478;8.936;2023-06-22T13:08:39;9.85;;;5.80;;
15342;SDS011;7771;48.478;8.936;2023-06-22T13:11:07;10.15;;;5.75;;
15342;SDS011;7771;48.478;8.936;2023-06-22T13:13:35;10.32;;;5.62;;
15342;SDS011;7771;48.478;8.936;2023-06-22T13:16:02;9.98;;;5.32;;
15342;SDS011;7771;48.478;8.936;2023-06-22T13:18:29;9.80;;;5.65;;
15342;SDS011;7771;48.478;8.936;2023-06-22T13:20:57;9.65;;;6.50;;
15342;SDS011;7771;48.478;8.936;2023-06-22T13:23:24;7.97;;;5.47;;
15342;SDS011;7771;48.478;8.936;2023-06-22T13:25:53;10.40;;;5.80;;
15342;SDS011;7771;48.478;8.936;2023-06-22T13:28:21;9.13;;;5.72;;
15342;SDS011;7771;48.478;8.936;2023-06-22T13:30:48;8.30;;;6.12;;
15342;SDS011;7771;48.478;8.936;2023-06-22T13:33:16;8.23;;;6.15;;
15342;SDS011;7771;48.478;8.936;2023-06-22T13:35:44;9.98;;;6.00;;
15342;SDS011;7771;48.478;8.936;2023-06-22T13:38:12;10.40;;;4.97;;
15342;SDS011;7771;48.478;8.936;2023-06-22T13:40:38;9.18;;;6.68;;
15342;SDS011;7771;48.478;8.936;2023-06-22T13:43:05;9.77;;;5.57;;
15342;SDS011;7771;48.478;8.936;2023-06-22T13:45:32;11.18;;;7.32;;
15342;SDS011;7771;48.478;8.936;2023-06-22T13:47:59;10.70;;;6.00;;
15342;SDS011;7771;48.478;8.936;2023-06-22T13:50:26;9.63;;;5.68;;
15342;SDS011;7771;48.478;8.936;2023-06-22T13:52:53;11.35;;;6.15;;
15342;SDS011;7771;48.478;8.936;2023-06-22T13:55:21;7.90;;;5.93;;
15342;SDS011;7771;48.478;8.936;2023-06-22T13:57:48;12.18;;;6.65;;
15342;SDS011;7771;48.478;8.936;2023-06-22T14:00:15;8.70;;;6.12;;
15342;SDS011;7771;48.478;8.936;2023-06-22T14:02:42;9.57;;;5.93;;
15342;SDS011;7771;48.478;8.936;2023-06-22T14:05:09;11.07;;;6.22;;
15342;SDS011;7771;48.478;8.936;2023-06-22T14:07:35;10.68;;;5.85;;
15342;SDS011;7771;48.478;8.936;2023-06-22T14:10:03;10.73;;;6.00;;
15342;SDS011;7771;48.478;8.936;2023-06-22T14:12:32;12.95;;;6.37;;
15342;SDS011;7771;48.478;8.936;2023-06-22T14:14:59;10.02;;;6.87;;
15342;SDS011;7771;48.478;8.936;2023-06-22T14:17:26;12.15;;;6.05;;
15342;SDS011;7771;48.478;8.936;2023-06-22T14:19:54;10.82;;;6.45;;
15342;SDS011;7771;48.478;8.936;2023-06-22T14:22:21;9.07;;;6.10;;
15342;SDS011;7771;48.478;8.936;2023-06-22T14:24:49;13.27;;;6.18;;
15342;SDS011;7771;48.478;8.936;2023-06-22T14:27:18;9.10;;;6.62;;
15342;SDS011;7771;48.478;8.936;2023-06-22T14:29:44;14.73;;;6.90;;
15342;SDS011;7771;48.478;8.936;2023-06-22T14:32:12;7.97;;;5.32;;
15342;SDS011;7771;48.478;8.936;2023-06-22T14:34:40;9.93;;;5.40;;
15342;SDS011;7771;48.478;8.936;2023-06-22T14:37:08;11.68;;;6.12;;
15342;SDS011;7771;48.478;8.936;2023-06-22T14:39:36;11.10;;;5.12;;
15342;SDS011;7771;48.478;8.936;2023-06-22T14:42:03;12.85;;;4.80;;
15342;SDS011;7771;48.478;8.936;2023-06-22T14:44:31;11.73;;;5.00;;
15342;SDS011;7771;48.478;8.936;2023-06-22T14:46:58;14.68;;;5.12;;
15342;SDS011;7771;48.478;8.936;2023-06-22T14:49:26;10.02;;;4.60;;
15342;SDS011;7771;48.478;8.936;2023-06-22T14:51:53;6.97;;;3.62;;
15342;SDS011;7771;48.478;8.936;2023-06-22T14:54:20;10.02;;;3.87;;